Time;durP1;ratioP1;P1;durP2;ratioP2;P2;SDS_P1;SDS_P2;PMS_P1;PMS_P2;Temp;Humidity;BMP_temperature;BMP_pressure;BME280_temperature;BME280_humidity;BME280_pressure;Samples;Min_cycle;Max_cycle;Signal;HPM_P1;HPM_P2
2022/08/10 00:01:34;;;;;;;;;;;;;;;25.05;34.36;100433.56;4424258;32;33169;-81
2022/08/10 00:04:02;;;;;;;;;;;;;;;24.95;34.46;100430.88;4430545;32;33979;-81
2022/08/10 00:06:30;;;;;;;;;;;;;;;24.97;34.54;100433.44;4425516;32;32099;-81
2022/08/10 00:08:57;;;;;;;;;;;;;;;24.95;35.18;100430.88;4438054;32;33437;-81
2022/08/10 00:11:25;;;;;;;;;;;;;;;24.98;34.72;100429.75;4425251;32;35094;-80
2022/08/10 00:13:52;;;;;;;;;;;;;;;24.87;34.94;100425.34;4424782;32;32882;-81
2022/08/10 00:16:20;;;;;;;;;;;;;;;24.94;34.97;100426.47;4438750;32;32629;-81
2022/08/10 00:18:48;;;;;;;;;;;;;;;25.08;34.79;100424.38;4425379;32;33427;-81
2022/08/10 00:21:15;;;;;;;;;;;;;;;25.05;34.67;100414.66;4436866;32;34229;-81
2022/08/10 00:23:42;;;;;;;;;;;;;;;24.99;35.02;100420.66;4437433;32;34943;-81
2022/08/10 00:26:10;;;;;;;;;;;;;;;25.00;34.97;100417.78;4429538;32;32441;-81
2022/08/10 00:28:38;;;;;;;;;;;;;;;25.07;34.55;100422.59;4442174;32;121816;-81
2022/08/10 00:31:05;;;;;;;;;;;;;;;24.79;35.41;100425.22;4438208;32;34594;-81
2022/08/10 00:33:33;;;;;;;;;;;;;;;24.92;35.45;100424.91;4412766;32;32062;-81
2022/08/10 00:36:01;;;;;;;;;;;;;;;24.95;35.01;100421.94;4437887;32;33283;-81
2022/08/10 00:38:28;;;;;;;;;;;;;;;24.75;35.74;100423.81;4412451;32;33355;-81
2022/08/10 00:40:56;;;;;;;;;;;;;;;24.75;35.86;100424.66;4437677;32;33758;-81
2022/08/10 00:43:24;;;;;;;;;;;;;;;24.81;35.46;100416.97;4437751;32;34966;-81
2022/08/10 00:45:51;;;;;;;;;;;;;;;24.73;35.86;100418.53;4412683;32;32634;-81
2022/08/10 00:48:28;;;;;;;;;;;;;;;24.67;36.00;100420.94;4438596;32;33651;-80
2022/08/10 00:50:58;;;;;;;;;;;;;;;24.42;36.08;100416.97;4437951;32;34243;-81
2022/08/10 00:53:26;;;;;;;;;;;;;;;24.52;35.90;100413.28;4437721;32;33461;-81
2022/08/10 00:55:55;;;;;;;;;;;;;;;24.27;36.60;100425.47;4412165;32;32481;-81
2022/08/10 00:58:43;;;;;;;;;;;;;;;24.49;36.15;100426.19;4427412;32;34264;-81
2022/08/10 01:01:10;;;;;;;;;;;;;;;24.31;36.86;100417.94;4437595;32;35092;-81
2022/08/10 01:03:58;;;;;;;;;;;;;;;24.42;36.68;100425.06;4426747;32;33076;-80
2022/08/10 01:06:58;;;;;;;;;;;;;;;24.19;37.00;100421.75;4427463;32;32243;-81
2022/08/10 01:09:25;;;;;;;;;;;;;;;24.10;37.36;100428.81;4431754;32;33948;-81
2022/08/10 01:12:09;;;;;;;;;;;;;;;24.13;37.62;100425.84;4449613;32;33575;-81
2022/08/10 01:15:02;;;;;;;;;;;;;;;24.32;37.17;100421.50;4437975;32;33777;-81
2022/08/10 01:17:37;;;;;;;;;;;;;;;24.20;37.47;100429.69;4437753;32;33598;-81
2022/08/10 01:20:23;;;;;;;;;;;;;;;24.42;37.06;100423.22;4437705;32;34347;-80
2022/08/10 01:23:00;;;;;;;;;;;;;;;24.43;36.57;100419.53;4438175;32;34332;-81
2022/08/10 01:25:44;;;;;;;;;;;;;;;24.17;37.46;100421.91;4438296;32;33993;-81
2022/08/10 01:28:50;;;;;;;;;;;;;;;24.26;37.42;100428.31;4412622;32;32516;-81
2022/08/10 01:31:19;;;;;;;;;;;;;;;24.32;37.18;100418.78;4427748;32;34137;-81
2022/08/10 01:33:52;;;;;;;;;;;;;;;24.13;37.73;100423.16;4424912;32;33187;-81
2022/08/10 01:36:28;;;;;;;;;;;;;;;24.06;37.58;100421.16;4416757;32;32827;-80
2022/08/10 01:39:01;;;;;;;;;;;;;;;23.83;38.10;100420.50;4424345;32;31625;-81
2022/08/10 01:41:31;;;;;;;;;;;;;;;23.99;37.90;100426.25;4424961;32;34141;-81
2022/08/10 01:44:14;;;;;;;;;;;;;;;23.97;38.13;100429.06;4426290;32;33442;-81
2022/08/10 01:46:44;;;;;;;;;;;;;;;23.61;38.84;100432.34;4437691;32;34814;-81
2022/08/10 01:49:13;;;;;;;;;;;;;;;23.73;38.76;100433.97;4439880;32;33236;-80
2022/08/10 01:51:41;;;;;;;;;;;;;;;23.73;38.79;100440.19;4440100;32;34135;-81
2022/08/10 01:54:10;;;;;;;;;;;;;;;23.61;39.08;100435.88;4427063;32;33197;-81
2022/08/10 01:56:40;;;;;;;;;;;;;;;23.55;39.32;100441.81;4421366;32;34253;-81
2022/08/10 01:59:09;;;;;;;;;;;;;;;23.64;38.86;100438.34;4431553;32;32020;-81
2022/08/10 02:01:38;;;;;;;;;;;;;;;23.73;38.95;100442.91;4439609;32;35025;-81
2022/08/10 02:04:08;;;;;;;;;;;;;;;23.77;38.84;100441.63;4430559;32;33120;-81
2022/08/10 02:06:41;;;;;;;;;;;;;;;23.84;39.05;100439.28;4427173;32;32976;-81
2022/08/10 02:09:26;;;;;;;;;;;;;;;23.70;39.05;100436.94;4435365;32;32897;-81
2022/08/10 02:11:55;;;;;;;;;;;;;;;23.79;39.13;100436.13;4436838;32;34150;-81
2022/08/10 02:14:41;;;;;;;;;;;;;;;23.91;38.88;100434.16;4440815;32;34058;-81
2022/08/10 02:17:12;;;;;;;;;;;;;;;24.10;38.34;100430.66;4428327;32;33814;-81
2022/08/10 02:20:03;;;;;;;;;;;;;;;23.57;39.99;100442.53;4441908;32;33398;-81
2022/08/10 02:22:31;;;;;;;;;;;;;;;24.04;38.51;100434.78;4439458;32;33036;-81
2022/08/10 02:25:13;;;;;;;;;;;;;;;23.80;39.50;100427.03;4441296;32;34391;-81
2022/08/10 02:28:02;;;;;;;;;;;;;;;23.76;39.71;100429.16;4428678;32;33163;-81
2022/08/10 02:30:30;;;;;;;;;;;;;;;24.04;38.84;100436.63;4426421;32;33544;-81
2022/08/10 02:32:59;;;;;;;;;;;;;;;24.05;38.58;100433.78;4439302;32;33888;-81
2022/08/10 02:35:28;;;;;;;;;;;;;;;23.86;39.12;100431.88;4428973;32;33055;-81
2022/08/10 02:38:17;;;;;;;;;;;;;;;23.86;39.74;100436.41;4428435;32;33776;-81
2022/08/10 02:40:45;;;;;;;;;;;;;;;23.97;39.05;100439.84;4430346;32;32935;-81
2022/08/10 02:43:34;;;;;;;;;;;;;;;24.18;38.48;100438.94;4428793;32;33402;-81
2022/08/10 02:46:25;;;;;;;;;;;;;;;24.14;39.08;100446.44;4437953;32;34963;-81
2022/08/10 02:49:03;;;;;;;;;;;;;;;23.91;39.53;100439.56;4426158;32;32739;-81
2022/08/10 02:51:38;;;;;;;;;;;;;;;24.00;39.60;100450.37;4427965;32;32613;-81
2022/08/10 02:54:27;;;;;;;;;;;;;;;24.05;39.07;100447.28;4438366;32;34274;-81
2022/08/10 02:56:57;;;;;;;;;;;;;;;24.07;39.25;100452.50;4429438;32;33924;-81
2022/08/10 02:59:32;;;;;;;;;;;;;;;24.00;39.43;100454.91;4436401;32;35001;-81
2022/08/10 03:02:07;;;;;;;;;;;;;;;23.55;40.83;100455.28;4442178;32;31898;-81
2022/08/10 03:04:36;;;;;;;;;;;;;;;23.50;40.80;100453.00;4428606;32;33409;-81
2022/08/10 03:07:24;;;;;;;;;;;;;;;23.23;41.91;100456.25;4430753;32;33827;-81
2022/08/10 03:10:14;;;;;;;;;;;;;;;23.39;41.80;100454.91;4441223;32;33848;-80
2022/08/10 03:12:42;;;;;;;;;;;;;;;23.27;42.34;100467.63;4435547;32;33326;-81
2022/08/10 03:15:10;;;;;;;;;;;;;;;23.22;40.94;100469.84;4428431;32;33456;-81
2022/08/10 03:17:43;;;;;;;;;;;;;;;23.50;41.89;100474.56;4441689;32;33917;-81
2022/08/10 03:20:29;;;;;;;;;;;;;;;22.89;43.24;100473.59;4431908;32;33439;-81
2022/08/10 03:23:11;;;;;;;;;;;;;;;23.37;42.10;100478.47;4427236;32;31882;-81
2022/08/10 03:25:39;;;;;;;;;;;;;;;23.41;41.81;100482.59;4441327;32;33122;-81
2022/08/10 03:28:07;;;;;;;;;;;;;;;23.30;42.09;100491.59;4441179;32;33173;-81
2022/08/10 03:30:36;;;;;;;;;;;;;;;23.03;43.11;100485.88;4441110;32;34184;-80
2022/08/10 03:33:04;;;;;;;;;;;;;;;23.18;43.07;100488.13;4445029;32;33294;-80
2022/08/10 03:35:32;;;;;;;;;;;;;;;22.88;44.60;100493.34;4428508;32;33136;-81
2022/08/10 03:38:00;;;;;;;;;;;;;;;22.89;44.08;100493.28;4441002;32;34065;-81
2022/08/10 03:40:29;;;;;;;;;;;;;;;23.07;42.32;100493.53;4440902;32;34310;-81
2022/08/10 03:43:15;;;;;;;;;;;;;;;23.08;42.92;100489.88;4429972;32;33576;-81
2022/08/10 03:45:43;;;;;;;;;;;;;;;22.87;43.11;100480.87;4435425;32;32700;-81
2022/08/10 03:48:26;;;;;;;;;;;;;;;23.32;41.92;100486.94;4441540;32;33832;-81
2022/08/10 03:51:14;;;;;;;;;;;;;;;23.52;40.46;100494.13;4443068;32;33888;-81
2022/08/10 03:53:42;;;;;;;;;;;;;;;22.94;42.21;100492.91;4440951;32;32725;-81
2022/08/10 03:56:30;;;;;;;;;;;;;;;23.48;40.40;100491.84;4430321;32;33993;-81
2022/08/10 03:58:59;;;;;;;;;;;;;;;23.32;42.22;100495.00;4430940;32;34329;-80
2022/08/10 04:01:27;;;;;;;;;;;;;;;23.32;41.29;100497.72;4443620;32;33432;-80
2022/08/10 04:04:15;;;;;;;;;;;;;;;23.36;41.26;100496.47;4434077;32;33760;-81
2022/08/10 04:06:55;;;;;;;;;;;;;;;23.62;40.42;100499.59;4441124;32;33791;-81
2022/08/10 04:09:28;;;;;;;;;;;;;;;23.34;41.19;100501.13;4428196;32;32806;-81
2022/08/10 04:12:16;;;;;;;;;;;;;;;23.63;41.24;100503.12;4443773;32;34514;-80
2022/08/10 04:14:45;;;;;;;;;;;;;;;23.41;42.61;100501.47;4440800;32;31981;-80
2022/08/10 04:17:21;;;;;;;;;;;;;;;23.50;40.60;100509.59;4440805;32;32801;-80
2022/08/10 04:20:14;;;;;;;;;;;;;;;23.62;39.36;100496.88;4430056;32;33848;-81
2022/08/10 04:22:46;;;;;;;;;;;;;;;23.85;39.55;100507.53;4428335;32;32959;-81
2022/08/10 04:25:27;;;;;;;;;;;;;;;23.47;40.37;100500.91;4429054;32;32142;-81
2022/08/10 04:27:56;;;;;;;;;;;;;;;23.47;41.40;100498.22;4440386;32;33929;-81
2022/08/10 04:30:24;;;;;;;;;;;;;;;23.76;40.33;100501.97;4440819;32;33090;-80
2022/08/10 04:32:54;;;;;;;;;;;;;;;24.00;39.10;100503.47;4441108;32;34250;-80
2022/08/10 04:35:28;;;;;;;;;;;;;;;23.97;39.13;100495.66;4441041;32;33307;-81
2022/08/10 04:37:56;;;;;;;;;;;;;;;24.03;38.54;100495.13;4453354;32;33036;-80
2022/08/10 04:40:24;;;;;;;;;;;;;;;24.21;38.89;100496.19;4440727;32;34193;-80
2022/08/10 04:42:59;;;;;;;;;;;;;;;24.14;38.39;100500.41;4441596;32;35028;-81
2022/08/10 04:45:32;;;;;;;;;;;;;;;24.11;39.43;100492.56;4444488;32;33831;-81
2022/08/10 04:48:18;;;;;;;;;;;;;;;24.01;38.81;100502.47;4429907;32;33076;-81
2022/08/10 04:51:09;;;;;;;;;;;;;;;24.05;38.84;100511.16;4442861;32;34430;-81
2022/08/10 04:53:46;;;;;;;;;;;;;;;24.24;37.77;100501.28;4453309;32;33720;-81
2022/08/10 04:56:35;;;;;;;;;;;;;;;24.22;38.15;100507.81;4442821;32;32702;-81
2022/08/10 04:59:04;;;;;;;;;;;;;;;24.08;38.51;100506.34;4427588;32;33980;-81
2022/08/10 05:01:34;;;;;;;;;;;;;;;24.16;38.62;100508.34;4440712;32;33623;-81
2022/08/10 05:04:22;;;;;;;;;;;;;;;24.43;37.52;100507.75;4442769;32;32963;-81
2022/08/10 05:07:05;;;;;;;;;;;;;;;24.74;37.22;100503.97;4442296;32;33455;-81
2022/08/10 05:09:36;;;;;;;;;;;;;;;24.37;37.61;100502.91;4427900;32;34535;-81
2022/08/10 05:12:24;;;;;;;;;;;;;;;24.50;37.40;100511.63;4442286;32;34271;-80
2022/08/10 05:14:54;;;;;;;;;;;;;;;24.84;36.40;100508.53;4439776;32;33588;-81
2022/08/10 05:17:21;;;;;;;;;;;;;;;24.56;37.28;100502.94;4439951;32;34001;-81
2022/08/10 05:19:51;;;;;;;;;;;;;;;24.53;36.22;100505.91;4440350;32;34683;-80
2022/08/10 05:22:32;;;;;;;;;;;;;;;24.48;36.93;100513.59;4441951;32;35051;-80
2022/08/10 05:25:05;;;;;;;;;;;;;;;24.37;37.79;100505.63;4441069;32;33484;-81
2022/08/10 05:27:33;;;;;;;;;;;;;;;24.60;36.60;100506.25;4440268;32;33828;-81
2022/08/10 05:30:02;;;;;;;;;;;;;;;24.48;36.71;100508.19;4439868;32;33881;-80
2022/08/10 05:32:31;;;;;;;;;;;;;;;24.30;36.96;100501.72;4440253;32;32785;-80
2022/08/10 05:35:19;;;;;;;;;;;;;;;24.39;36.59;100509.03;4442642;32;34471;-81
2022/08/10 05:37:47;;;;;;;;;;;;;;;24.53;36.57;100505.91;4433137;32;33913;-81
2022/08/10 05:40:43;;;;;;;;;;;;;;;24.76;36.04;100507.38;4430308;32;32815;-81
2022/08/10 05:45:55;;;;;;;;;;;;;;;25.05;35.66;100506.53;4452572;32;33139;-81
2022/08/10 05:48:43;;;;;;;;;;;;;;;24.80;35.98;100510.66;4426482;32;32500;-81
2022/08/10 05:51:32;;;;;;;;;;;;;;;24.80;35.47;100515.22;4426347;32;33893;-81
2022/08/10 05:54:00;;;;;;;;;;;;;;;24.99;35.79;100513.34;4427517;32;34267;-80
2022/08/10 05:56:34;;;;;;;;;;;;;;;24.93;36.66;100507.69;4423780;32;33733;-81
2022/08/10 05:59:21;;;;;;;;;;;;;;;25.16;34.70;100503.72;4437418;32;32970;-81
2022/08/10 06:02:30;;;;;;;;;;;;;;;24.77;35.37;100509.06;4418098;32;35015;-81
2022/08/10 06:05:13;;;;;;;;;;;;;;;24.81;35.01;100503.41;4425966;32;32792;-81
2022/08/10 06:07:46;;;;;;;;;;;;;;;24.75;36.12;100505.66;4424597;32;34564;-81
2022/08/10 06:10:14;;;;;;;;;;;;;;;25.19;34.74;100507.97;4411653;32;32516;-81
2022/08/10 06:16:05;;;;;;;;;;;;;;;25.31;34.45;100511.37;4427831;32;34151;-81
2022/08/10 06:18:36;;;;;;;;;;;;;;;25.04;34.93;100507.53;4423140;32;34152;-81
2022/08/10 06:21:08;;;;;;;;;;;;;;;25.09;35.62;100512.53;4405117;32;32600;-81
2022/08/10 06:23:38;;;;;;;;;;;;;;;25.32;34.44;100513.09;4418739;32;35187;-81
2022/08/10 06:26:13;;;;;;;;;;;;;;;25.61;34.75;100513.03;4416472;32;34554;-81
2022/08/10 06:28:55;;;;;;;;;;;;;;;25.19;35.19;100505.25;4415632;32;33672;-81
2022/08/10 06:31:33;;;;;;;;;;;;;;;25.50;34.20;100505.94;4427550;32;33340;-81
2022/08/10 06:34:23;;;;;;;;;;;;;;;25.52;34.85;100512.03;4410706;32;33299;-81
2022/08/10 06:36:53;;;;;;;;;;;;;;;25.88;33.25;100506.84;4421988;32;34112;-81
2022/08/10 06:39:22;;;;;;;;;;;;;;;25.79;34.02;100509.44;4424495;32;34245;-81
2022/08/10 06:44:48;;;;;;;;;;;;;;;25.64;34.61;100508.19;4430586;32;35017;-81
2022/08/10 06:47:23;;;;;;;;;;;;;;;25.49;34.57;100515.03;4445085;32;34692;-81
2022/08/10 06:49:53;;;;;;;;;;;;;;;25.85;33.59;100505.28;4426288;32;33297;-81
2022/08/10 06:52:27;;;;;;;;;;;;;;;26.05;34.00;100506.03;4426953;32;33732;-81
2022/08/10 06:54:55;;;;;;;;;;;;;;;25.66;34.14;100506.16;4413339;32;33286;-81
2022/08/10 06:57:27;;;;;;;;;;;;;;;25.55;34.65;100498.25;4419198;32;34231;-82
2022/08/10 06:59:55;;;;;;;;;;;;;;;26.09;33.27;100502.03;4432496;32;33868;-81
2022/08/10 07:02:26;;;;;;;;;;;;;;;25.96;33.74;100496.12;4425411;32;33074;-81
2022/08/10 07:05:04;;;;;;;;;;;;;;;25.85;35.59;100504.44;4413314;32;32701;-81
2022/08/10 07:07:36;;;;;;;;;;;;;;;26.60;32.06;100499.78;4413571;32;33808;-81
2022/08/10 07:10:04;;;;;;;;;;;;;;;26.68;32.43;100503.44;4425981;32;33814;-81
2022/08/10 07:12:33;;;;;;;;;;;;;;;26.32;32.26;100509.75;4438526;32;33333;-81
2022/08/10 07:15:04;;;;;;;;;;;;;;;26.02;33.44;100507.22;4425857;32;34911;-81
2022/08/10 07:17:34;;;;;;;;;;;;;;;25.94;33.75;100503.53;4417114;32;33995;-80
2022/08/10 07:20:08;;;;;;;;;;;;;;;25.97;33.41;100505.94;4438254;32;34223;-81
2022/08/10 07:22:40;;;;;;;;;;;;;;;26.22;33.86;100501.69;4414655;32;32694;-81
2022/08/10 07:25:31;;;;;;;;;;;;;;;26.14;33.59;100490.75;4425638;32;32785;-81
2022/08/10 07:27:58;;;;;;;;;;;;;;;26.51;33.89;100501.53;4423928;32;33498;-81
2022/08/10 07:30:32;;;;;;;;;;;;;;;26.46;32.87;100490.31;4437782;32;34735;-81
2022/08/10 07:33:01;;;;;;;;;;;;;;;26.38;32.96;100493.75;4422589;32;32155;-81
2022/08/10 07:35:35;;;;;;;;;;;;;;;26.68;32.69;100484.47;4413807;32;33339;-81
2022/08/10 07:38:30;;;;;;;;;;;;;;;26.63;32.97;100488.63;4434241;32;32897;-81
2022/08/10 07:41:01;;;;;;;;;;;;;;;26.79;32.77;100484.22;4438271;32;33697;-81
2022/08/10 07:43:34;;;;;;;;;;;;;;;26.73;32.21;100492.97;4434653;32;32847;-81
2022/08/10 07:46:04;;;;;;;;;;;;;;;26.83;31.98;100492.91;4438188;32;32622;-81
2022/08/10 07:48:38;;;;;;;;;;;;;;;26.99;32.46;100484.91;4436042;32;33711;-81
2022/08/10 07:51:06;;;;;;;;;;;;;;;27.40;30.72;100481.72;4425428;32;34904;-81
2022/08/10 07:53:37;;;;;;;;;;;;;;;27.56;31.17;100481.78;4424153;32;32237;-81
2022/08/10 07:56:12;;;;;;;;;;;;;;;27.45;30.71;100484.78;4438366;32;34618;-81
2022/08/10 07:59:12;;;;;;;;;;;;;;;27.62;31.48;100486.56;4426641;32;34411;-80
2022/08/10 08:01:49;;;;;;;;;;;;;;;27.13;31.05;100491.66;4437981;32;34240;-81
2022/08/10 08:04:18;;;;;;;;;;;;;;;27.45;30.24;100487.50;4436802;32;34179;-81
2022/08/10 08:06:46;;;;;;;;;;;;;;;27.45;31.04;100488.34;4423492;32;32589;-81
2022/08/10 08:09:17;;;;;;;;;;;;;;;28.00;29.49;100479.00;4435550;32;34063;-81
2022/08/10 08:14:21;;;;;;;;;;;;;;;28.05;29.05;100487.50;4432305;32;33472;-82
2022/08/10 08:16:49;;;;;;;;;;;;;;;28.07;29.24;100474.63;4418845;32;32797;-81
2022/08/10 08:19:19;;;;;;;;;;;;;;;27.93;28.53;100478.81;4414461;32;34091;-81
2022/08/10 08:22:02;;;;;;;;;;;;;;;27.44;29.42;100488.47;4424872;32;32993;-81
2022/08/10 08:24:50;;;;;;;;;;;;;;;27.90;29.42;100478.28;4436565;32;32974;-81
2022/08/10 08:27:29;;;;;;;;;;;;;;;27.57;28.83;100489.75;4422476;32;32818;-81
2022/08/10 08:30:00;;;;;;;;;;;;;;;27.91;29.06;100483.53;4435597;32;33821;-81
2022/08/10 08:32:32;;;;;;;;;;;;;;;27.98;28.56;100481.88;4421656;32;33663;-82
2022/08/10 08:35:03;;;;;;;;;;;;;;;28.42;27.84;100467.28;4424834;32;32643;-81
2022/08/10 08:37:32;;;;;;;;;;;;;;;28.36;28.50;100466.09;4425003;32;34043;-81
2022/08/10 08:40:22;;;;;;;;;;;;;;;28.19;28.80;100467.87;4437437;32;34665;-81
2022/08/10 08:43:11;;;;;;;;;;;;;;;28.24;28.87;100465.50;4437230;32;33889;-81
2022/08/10 08:45:47;;;;;;;;;;;;;;;28.44;29.12;100470.69;4425066;32;31617;-81
2022/08/10 08:48:33;;;;;;;;;;;;;;;28.41;27.46;100471.03;4438970;32;34032;-81
2022/08/10 08:51:11;;;;;;;;;;;;;;;28.36;27.99;100473.41;4417535;32;32866;-81
2022/08/10 08:54:17;;;;;;;;;;;;;;;28.12;28.86;100466.00;4428018;32;34036;-81
2022/08/10 08:57:24;;;;;;;;;;;;;;;28.53;27.37;100461.53;4422554;32;32537;-82
2022/08/10 09:00:23;;;;;;;;;;;;;;;28.73;27.32;100462.94;4390662;32;34594;-81
2022/08/10 09:03:11;;;;;;;;;;;;;;;28.93;28.86;100468.03;4365637;32;33914;-81
2022/08/10 09:05:58;;;;;;;;;;;;;;;29.00;27.38;100456.34;4431238;32;34167;-81
2022/08/10 09:08:44;;;;;;;;;;;;;;;28.73;27.81;100471.09;4424272;32;32040;-81
2022/08/10 09:11:18;;;;;;;;;;;;;;;28.79;26.53;100464.97;4434018;32;33818;-81
2022/08/10 09:13:57;;;;;;;;;;;;;;;29.02;27.10;100457.03;4424937;32;33947;-81
2022/08/10 09:16:46;;;;;;;;;;;;;;;29.04;26.99;100463.13;4435629;32;33398;-81
2022/08/10 09:19:33;;;;;;;;;;;;;;;29.46;26.96;100453.06;4436994;32;34106;-81
2022/08/10 09:22:07;;;;;;;;;;;;;;;30.11;26.90;100461.03;4433258;32;34307;-82
2022/08/10 09:24:58;;;;;;;;;;;;;;;30.10;25.95;100456.63;4437740;32;34311;-81
2022/08/10 09:27:31;;;;;;;;;;;;;;;29.59;26.25;100450.69;4412689;32;35213;-81
2022/08/10 09:30:05;;;;;;;;;;;;;;;29.54;26.98;100448.47;4425384;32;32362;-81
2022/08/10 09:32:47;;;;;;;;;;;;;;;29.24;27.22;100450.03;4417505;32;33119;-81
2022/08/10 09:35:46;;;;;;;;;;;;;;;29.39;26.93;100450.19;4425524;32;34237;-81
2022/08/10 09:38:50;;;;;;;;;;;;;;;29.42;25.63;100452.53;4427035;32;33852;-81
2022/08/10 09:41:19;;;;;;;;;;;;;;;29.81;25.53;100433.56;4423789;32;33581;-81
2022/08/10 09:44:18;;;;;;;;;;;;;;;30.06;24.92;100447.09;4424060;32;32758;-81
2022/08/10 09:46:55;;;;;;;;;;;;;;;29.78;25.82;100442.09;4423221;32;33296;-81
2022/08/10 09:52:27;;;;;;;;;;;;;;;29.19;26.39;100449.69;4432926;32;33726;-82
2022/08/10 09:55:17;;;;;;;;;;;;;;;29.53;24.92;100437.72;4424576;32;32930;-81
2022/08/10 09:57:51;;;;;;;;;;;;;;;29.91;25.47;100435.22;4423558;32;33142;-81
2022/08/10 10:00:27;;;;;;;;;;;;;;;30.15;27.05;100435.16;4431304;32;34723;-81
2022/08/10 10:02:58;;;;;;;;;;;;;;;30.37;24.61;100425.31;4436860;32;32603;-81
2022/08/10 10:05:33;;;;;;;;;;;;;;;30.14;24.37;100438.06;4413251;32;33454;-81
2022/08/10 10:08:10;;;;;;;;;;;;;;;30.15;25.04;100434.28;4435197;32;34254;-81
2022/08/10 10:10:48;;;;;;;;;;;;;;;30.46;24.29;100420.66;4438708;32;33880;-82
2022/08/10 10:13:21;;;;;;;;;;;;;;;30.62;24.73;100431.44;4429052;32;32452;-82
2022/08/10 10:16:31;;;;;;;;;;;;;;;30.52;23.50;100425.38;4422017;32;32715;-81
2022/08/10 10:19:03;;;;;;;;;;;;;;;30.12;24.34;100430.03;4437108;32;32878;-81
2022/08/10 10:21:41;;;;;;;;;;;;;;;30.25;23.84;100419.44;4426543;32;33890;-81
2022/08/10 10:24:43;;;;;;;;;;;;;;;30.38;24.12;100412.53;4440155;32;34168;-81
2022/08/10 10:27:36;;;;;;;;;;;;;;;30.49;23.79;100417.59;4427935;32;33898;-81
2022/08/10 10:30:09;;;;;;;;;;;;;;;30.08;23.04;100412.34;4429552;32;32836;-81
2022/08/10 10:32:58;;;;;;;;;;;;;;;29.96;24.20;100402.87;4413554;32;33184;-82
2022/08/10 10:35:29;;;;;;;;;;;;;;;30.73;22.90;100405.69;4416094;32;32050;-81
2022/08/10 10:37:59;;;;;;;;;;;;;;;30.75;23.33;100388.09;4437835;32;34513;-82
2022/08/10 10:40:43;;;;;;;;;;;;;;;30.60;23.36;100400.81;4427925;32;34271;-82
2022/08/10 10:43:13;;;;;;;;;;;;;;;30.62;24.42;100401.44;4426301;32;33952;-82
2022/08/10 10:45:50;;;;;;;;;;;;;;;30.56;23.93;100388.56;4433435;32;33415;-81
2022/08/10 10:48:23;;;;;;;;;;;;;;;31.20;23.20;100380.00;4426992;32;34904;-81
2022/08/10 10:51:07;;;;;;;;;;;;;;;31.25;23.13;100385.75;4442568;32;34216;-81
2022/08/10 10:54:01;;;;;;;;;;;;;;;31.04;22.61;100375.56;4440418;32;34733;-82
2022/08/10 10:57:00;;;;;;;;;;;;;;;31.16;21.72;100382.25;4444980;32;34211;-81
2022/08/10 10:59:33;;;;;;;;;;;;;;;30.64;23.03;100388.50;4426028;32;34018;-81
2022/08/10 11:02:31;;;;;;;;;;;;;;;30.79;22.85;100389.44;4430325;32;32805;-82
2022/08/10 11:05:23;;;;;;;;;;;;;;;31.33;20.90;100383.81;4441384;32;33604;-82
2022/08/10 11:07:59;;;;;;;;;;;;;;;31.30;19.87;100378.72;4446264;32;32920;-81
2022/08/10 11:10:45;;;;;;;;;;;;;;;30.91;21.28;100380.78;4428430;32;33125;-81
2022/08/10 11:13:33;;;;;;;;;;;;;;;31.06;20.31;100376.22;4441163;32;33766;-82
2022/08/10 11:16:33;;;;;;;;;;;;;;;31.52;21.58;100367.88;4430839;32;33992;-82
2022/08/10 11:19:04;;;;;;;;;;;;;;;31.96;20.33;100351.47;4439046;32;31855;-81
2022/08/10 11:21:42;;;;;;;;;;;;;;;32.05;21.70;100357.69;4441919;32;34974;-81
2022/08/10 11:24:32;;;;;;;;;;;;;;;31.65;21.40;100362.59;4441562;32;34034;-81
2022/08/10 11:27:18;;;;;;;;;;;;;;;32.00;21.50;100350.06;4442819;32;34492;-81
2022/08/10 11:29:57;;;;;;;;;;;;;;;31.99;22.39;100355.69;4431212;32;33435;-81
2022/08/10 11:32:26;;;;;;;;;;;;;;;31.91;21.53;100355.81;4441144;32;34115;-81
2022/08/10 11:34:56;;;;;;;;;;;;;;;31.70;21.53;100357.41;4428623;32;32971;-81
2022/08/10 11:37:49;;;;;;;;;;;;;;;31.66;21.47;100358.00;4454963;32;34793;-82
2022/08/10 11:40:45;;;;;;;;;;;;;;;31.84;21.88;100351.12;4443534;32;33404;-82
2022/08/10 11:46:03;;;;;;;;;;;;;;;31.84;20.24;100351.12;4441973;32;34938;-82
2022/08/10 11:49:07;;;;;;;;;;;;;;;32.02;19.47;100336.19;4446632;32;34147;-81
2022/08/10 11:51:37;;;;;;;;;;;;;;;31.76;19.87;100353.94;4380568;32;33321;-82
2022/08/10 11:54:09;;;;;;;;;;;;;;;31.43;20.36;100358.09;4452349;32;33397;-81
2022/08/10 11:56:50;;;;;;;;;;;;;;;31.72;20.03;100352.63;4440973;32;33995;-81
2022/08/10 12:02:08;;;;;;;;;;;;;;;32.15;20.16;100351.91;4442894;32;33392;-82
2022/08/10 12:04:38;;;;;;;;;;;;;;;32.20;19.49;100347.53;4440988;32;34604;-81
2022/08/10 12:07:08;;;;;;;;;;;;;;;31.95;19.33;100349.75;4440372;32;33809;-81
2022/08/10 12:09:59;;;;;;;;;;;;;;;31.80;19.46;100343.47;4443575;32;33682;-82
2022/08/10 12:12:51;;;;;;;;;;;;;;;31.49;19.61;100344.56;4429445;32;33212;-81
2022/08/10 12:15:27;;;;;;;;;;;;;;;31.20;19.05;100342.66;4427407;32;32708;-81
2022/08/10 12:17:59;;;;;;;;;;;;;;;31.35;19.81;100335.34;4441311;32;33972;-81
2022/08/10 12:20:32;;;;;;;;;;;;;;;31.49;19.79;100333.66;4440529;32;33329;-82
2022/08/10 12:23:14;;;;;;;;;;;;;;;30.84;19.77;100337.06;4440648;32;32527;-82
2022/08/10 12:25:51;;;;;;;;;;;;;;;31.50;19.03;100334.50;4428111;32;32986;-81
2022/08/10 12:28:28;;;;;;;;;;;;;;;31.83;18.27;100324.84;4428169;32;34865;-81
2022/08/10 12:31:16;;;;;;;;;;;;;;;31.73;18.37;100321.56;4429868;32;33131;-82
2022/08/10 12:33:48;;;;;;;;;;;;;;;32.06;18.55;100326.56;4440229;32;33092;-81
2022/08/10 12:36:33;;;;;;;;;;;;;;;32.10;18.11;100322.41;4428933;32;34386;-81
2022/08/10 12:39:12;;;;;;;;;;;;;;;32.48;18.05;100325.75;4438945;32;34994;-81
2022/08/10 12:41:49;;;;;;;;;;;;;;;32.18;18.72;100324.16;4427588;32;34235;-81
2022/08/10 12:44:39;;;;;;;;;;;;;;;31.96;18.98;100310.50;4428039;32;32823;-81
2022/08/10 12:47:13;;;;;;;;;;;;;;;32.19;18.34;100310.31;4453133;32;36072;-81
2022/08/10 12:50:08;;;;;;;;;;;;;;;31.54;17.61;100311.25;4440861;32;34263;-81
2022/08/10 12:53:01;;;;;;;;;;;;;;;31.59;16.98;100315.09;4430078;32;32688;-82
2022/08/10 12:55:33;;;;;;;;;;;;;;;31.39;18.88;100313.16;4428735;32;32169;-81
2022/08/10 12:58:03;;;;;;;;;;;;;;;31.61;19.20;100314.87;4440937;32;35531;-81
2022/08/10 13:00:58;;;;;;;;;;;;;;;31.31;18.30;100312.19;4440831;32;32810;-82
2022/08/10 13:03:46;;;;;;;;;;;;;;;31.76;17.97;100298.47;4444940;32;32755;-81
2022/08/10 13:06:40;;;;;;;;;;;;;;;31.86;18.33;100294.44;4430228;32;32098;-81
2022/08/10 13:09:09;;;;;;;;;;;;;;;32.19;18.54;100298.53;4440260;32;34268;-81
2022/08/10 13:11:39;;;;;;;;;;;;;;;31.21;21.10;100295.25;4440636;32;34999;-81
2022/08/10 13:14:42;;;;;;;;;;;;;;;31.41;19.10;100284.63;4430169;32;34146;-81
2022/08/10 13:17:13;;;;;;;;;;;;;;;30.94;19.73;100298.63;4440728;32;33035;-81
2022/08/10 13:19:54;;;;;;;;;;;;;;;31.13;19.95;100295.34;4441876;32;34871;-81
2022/08/10 13:22:40;;;;;;;;;;;;;;;31.56;18.97;100290.03;4443137;32;33493;-81
2022/08/10 13:25:22;;;;;;;;;;;;;;;31.69;18.92;100284.75;4439890;32;34930;-81
2022/08/10 13:27:51;;;;;;;;;;;;;;;32.05;19.04;100282.03;4440271;32;33954;-82
2022/08/10 13:30:40;;;;;;;;;;;;;;;31.88;19.04;100280.56;4441459;32;32914;-81
2022/08/10 13:33:10;;;;;;;;;;;;;;;31.37;19.96;100278.69;4427886;32;33587;-81
2022/08/10 13:35:40;;;;;;;;;;;;;;;31.67;19.62;100281.37;4439811;32;33898;-81
2022/08/10 13:38:10;;;;;;;;;;;;;;;31.86;19.74;100278.06;4440657;32;34249;-81
2022/08/10 13:43:22;;;;;;;;;;;;;;;32.07;18.75;100270.91;4441383;32;34043;-81
2022/08/10 13:45:51;;;;;;;;;;;;;;;31.89;19.54;100278.69;4440636;32;34756;-81
2022/08/10 13:48:24;;;;;;;;;;;;;;;31.04;20.02;100272.75;4449169;32;34122;-81
2022/08/10 13:50:57;;;;;;;;;;;;;;;31.08;20.43;100273.25;4424938;32;32730;-81